Terminal Aerodrome Forecast
Issued by NWS Duluth, MN

Home | Current Version | Previous Version | Text Only | Print | Product List | Glossary On
Versions: 1 2 3 4 5 6 7 8 9 10 11 12 13 14 15 16 17 18 19 20 21 22 23 24 25 26
000
FTUS43 KDLH 231300 AAA
TAFDLH
TAF AMD
KDLH 231354Z 2314/2412 21007KT 2SM BR OVC004
      TEMPO 2314/2316 1/4SM FG OVC002
     FM231800 23008KT P6SM SKC
     FM232200 VRB04KT P6SM SKC=

USA.gov is the U.S. government's official web portal to all federal, state and local government web resources and services.